Terminal Aerodrome Forecast
Issued by NWS

Home | Current Version | Previous Version | Text Only | Print | Product List | Glossary On
Versions: 1 2 3 4 5 6 7 8 9 10 11 12 13 14 15 16 17 18 19
000
FTUS43 KLSX 201700
TAFCPS
TAF
KCPS 201722Z 2018/2118 07010KT 5SM -RA BR SCT015 OVC035
      TEMPO 2018/2021 2SM RA BR BKN015
     FM202100 03009KT P6SM BKN015 OVC030
     FM210200 35005KT P6SM OVC007
     FM211400 33008KT P6SM BKN020=

USA.gov is the U.S. government's official web portal to all federal, state and local government web resources and services.